createdAt,value
2019-02-18T00:06:03.360Z,6.6
2019-02-18T00:22:39.580Z,6.6
2019-02-18T00:39:15.726Z,6.2
2019-02-18T00:55:51.897Z,6.2
2019-02-18T01:12:27.997Z,6.2
2019-02-18T01:29:04.020Z,5.9
2019-02-18T01:45:39.866Z,5.9
2019-02-18T02:02:15.599Z,5.6
2019-02-18T02:18:51.269Z,5.6
2019-02-18T02:35:26.996Z,5.6
2019-02-18T02:52:02.576Z,5.6
2019-02-18T03:25:13.277Z,4.6
2019-02-18T03:41:48.418Z,5.0
2019-02-18T03:58:23.586Z,4.6
2019-02-18T04:14:58.466Z,4.3
2019-02-18T04:31:33.226Z,4.3
2019-02-18T04:48:07.889Z,4.0
2019-02-18T05:04:42.548Z,4.0
2019-02-18T05:21:17.062Z,3.7
2019-02-18T05:37:51.374Z,3.7
2019-02-18T05:54:25.768Z,3.7
2019-02-18T06:11:00.166Z,3.7
2019-02-18T06:27:34.656Z,3.4
2019-02-18T06:44:08.714Z,3.4
2019-02-18T07:00:42.875Z,3.4
2019-02-18T07:17:17.312Z,3.7
2019-02-18T07:33:51.843Z,4.0
2019-02-18T07:50:26.608Z,4.6
2019-02-18T08:07:01.802Z,5.0
2019-02-18T08:23:37.246Z,5.6
2019-02-18T08:40:22.095Z,6.2
2019-02-18T08:53:30.334Z,6.9
2019-02-18T09:10:07.450Z,7.5
2019-02-18T09:23:25.467Z,8.2
2019-02-18T09:40:03.344Z,8.8
2019-02-18T09:50:02.350Z,9.4
2019-02-18T10:03:31.030Z,10.1
2019-02-18T10:13:21.044Z,10.7
2019-02-18T10:26:40.878Z,11.4
2019-02-18T10:40:01.175Z,12.0
2019-02-18T10:56:41.937Z,12.6
2019-02-18T11:13:23.331Z,13.3
2019-02-18T11:30:05.049Z,13.6
2019-02-18T11:46:47.052Z,13.9
2019-02-18T12:03:29.396Z,14.2
2019-02-18T12:20:12.044Z,14.6
2019-02-18T12:36:54.973Z,15.2
2019-02-18T12:53:38.146Z,15.2
2019-02-18T13:27:05.085Z,15.8
2019-02-18T13:43:48.739Z,15.8
2019-02-18T14:00:32.614Z,16.2
2019-02-18T14:17:16.454Z,16.2
2019-02-18T14:34:00.313Z,16.2
2019-02-18T14:50:44.214Z,15.8
2019-02-18T15:07:27.852Z,15.5
2019-02-18T15:24:11.410Z,15.5
2019-02-18T15:40:54.662Z,15.2
2019-02-18T15:57:37.776Z,14.9
2019-02-18T16:14:20.821Z,14.6
2019-02-18T16:31:03.117Z,13.9
2019-02-18T16:47:45.219Z,13.6
2019-02-18T17:04:27.341Z,13.0
2019-02-18T17:21:08.215Z,12.6
2019-02-18T17:37:49.364Z,12.6
2019-02-18T17:54:30.430Z,12.3
2019-02-18T18:11:11.242Z,12.0
2019-02-18T18:27:52.062Z,11.7
2019-02-18T18:44:32.108Z,11.4
2019-02-18T19:01:12.456Z,11.4
2019-02-18T19:34:32.575Z,10.7
2019-02-18T19:51:12.132Z,10.4
2019-02-18T20:07:51.596Z,10.4
2019-02-18T20:24:30.911Z,10.1
2019-02-18T20:41:10.218Z,10.1
2019-02-18T20:57:49.445Z,9.8
2019-02-18T21:14:28.222Z,9.8
2019-02-18T21:31:06.700Z,9.4
2019-02-18T21:47:45.026Z,9.4
2019-02-18T22:04:23.190Z,9.1
2019-02-18T22:21:01.242Z,9.1
2019-02-18T22:37:39.245Z,8.8
2019-02-18T22:54:17.122Z,8.8
2019-02-18T23:10:54.848Z,8.8
2019-02-18T23:27:32.590Z,8.8
2019-02-18T23:44:10.279Z,8.5
